Portada
METAR-TAF:

METAR-TAF

Aeroports :

Qaisumah, Aràbia Saudita

latitud: 28-19N, longitud: 046-07E, altitud: 358 m

Observació

L'informe es va fer fa 38 minuts, a les 16:00 UTC
Vent 10 kt del Nord/Nord-Oest
Temperatura 39°C
Humitat 14%
Pressió 1003 hPa
Visibilitat 10 km o més
sense núvols per sota de 1500 mi sense presència de cumulonimbus.

METAR: OEPA 171600Z 33010KT CAVOK 39/07 Q1003 NOSIG

Hora: 19:38 (16:38 UTC)

Pronòstic

L'informe es va fer fa 5 hores i 38 minuts, a les 11:00 UTC
Pronòstic vàlid del 17 a les 12 UTC al 18 a les 18 UTC
Vent 10 kt del Nord-Oest amb ràfegues de 20 kt
Visibilitat: 8000 m
Temporalment
l' 17 a les 12 UTC al 17 a les 18 UTC
Visibilitat: 3500 m
Pols estès, torb alta de pols
Evolucionant progressivament
l' 17 a les 20 UTC al 17 a les 22 UTC
Vent 8 kt del Oest

TAF: OEPA 171100Z 1712/1818 32010G20KT 8000 NSC TEMPO 1712/1718 3500 DU BLDU BECMG 1720/1722 27008KT

Observacions i pronòstics meteorològics de més de 4000 aeroports (METAR i TAF).

Les estacions disponibles són els punts grocs i vermells al mapa.

Posi el ratolí al punt desitjat per veure el nom de l'estació.

Feu clic per veure les observacions i els pronòstics meteorològics.

Per canviar el mapa: feu clic els botons verds amb una creu de color negre per apropar; al botó verd amb un guió per allunyar la imatge; o en les fletxes verdes per a mapes adjacents.


METAR-TAF: